Time;durP1;ratioP1;P1;durP2;ratioP2;P2;SDS_P1;SDS_P2;PMS_P1;PMS_P2;Temp;Humidity;BMP_temperature;BMP_pressure;BME280_temperature;BME280_humidity;BME280_pressure;Samples;Min_cycle;Max_cycle;Signal;HPM_P1;HPM_P2
2021/01/04 00:01:24;;;;;;;0.63;0.63;;;-1.30;99.90;;;;;;5076980;28;20032;-89
2021/01/04 00:03:59;;;;;;;0.10;0.10;;;-1.40;99.90;;;;;;5090702;28;20031;-89
2021/01/04 00:06:41;;;;;;;0.20;0.20;;;-1.60;99.90;;;;;;5087841;28;20039;-89
2021/01/04 00:09:30;;;;;;;0.25;0.25;;;-1.60;99.90;;;;;;5077775;28;20560;-88
2021/01/04 00:12:04;;;;;;;0.80;0.70;;;-1.50;99.90;;;;;;5092642;28;20031;-89
2021/01/04 00:14:51;;;;;;;2.63;2.40;;;-1.70;99.90;;;;;;5085390;28;20034;-90
2021/01/04 00:17:32;;;;;;;0.52;0.52;;;-1.50;1.00;;;;;;5076210;28;20023;-89
2021/01/04 00:20:13;;;;;;;0.63;0.63;;;-1.50;99.90;;;;;;5090131;28;20028;-89
2021/01/04 00:22:47;;;;;;;0.90;0.90;;;-1.60;1.00;;;;;;5091874;28;20158;-91
2021/01/04 00:25:30;;;;;;;0.52;0.52;;;-1.60;1.00;;;;;;5089589;28;20060;-91
2021/01/04 00:28:07;;;;;;;0.28;0.28;;;-1.80;1.00;;;;;;5078874;28;20020;-90
2021/01/04 00:30:39;;;;;;;6.30;1.52;;;-2.00;1.00;;;;;;5090968;28;20059;-91
2021/01/04 00:33:16;;;;;;;0.43;0.43;;;-2.10;1.00;;;;;;5090938;28;20399;-92
2021/01/04 00:35:48;;;;;;;0.20;0.20;;;-2.00;1.00;;;;;;5090206;28;20084;-91
2021/01/04 00:38:44;;;;;;;0.40;0.40;;;-2.10;1.00;;;;;;5090423;28;20057;-91
2021/01/04 00:41:49;;;;;;;0.20;0.20;;;-2.00;35.90;;;;;;5078553;28;20115;-91
2021/01/04 00:44:27;;;;;;;4.07;1.55;;;-2.20;69.40;;;;;;5028268;28;20405;-90
2021/01/04 00:47:04;;;;;;;0.35;0.35;;;-2.20;97.60;;;;;;5028092;28;20059;-91
2021/01/04 00:49:32;;;;;;;;;;;-2.20;83.30;;;;;;5028494;28;20103;-90
2021/01/04 00:52:13;;;;;;;0.20;0.20;;;-2.40;1.00;;;;;;5028158;28;19916;-91
2021/01/04 00:54:51;;;;;;;0.82;0.77;;;-2.40;1.00;;;;;;5027960;28;20041;-90
2021/01/04 00:57:37;;;;;;;0.30;0.30;;;-2.70;1.00;;;;;;5027994;28;20114;-91
2021/01/04 01:00:23;;;;;;;;;;;-2.70;1.00;;;;;;5028079;28;20476;-90
2021/01/04 01:03:18;;;;;;;3.33;3.03;;;-2.50;1.00;;;;;;5023600;28;20052;-90
2021/01/04 01:05:59;;;;;;;0.73;0.73;;;-2.40;12.10;;;;;;5027762;28;20029;-91
2021/01/04 01:08:30;;;;;;;0.30;0.30;;;-2.60;1.00;;;;;;5011187;28;20088;-90
2021/01/04 01:11:07;;;;;;;0.28;0.28;;;-2.40;4.60;;;;;;5026703;28;20124;-90
2021/01/04 01:13:45;;;;;;;0.20;0.20;;;-2.10;80.10;;;;;;5027656;28;20048;-90
2021/01/04 01:16:34;;;;;;;0.75;0.75;;;-2.30;44.50;;;;;;5026858;28;20065;-90
2021/01/04 01:19:20;;;;;;;1.15;1.08;;;-2.20;94.00;;;;;;5016291;28;20128;-91
2021/01/04 01:21:47;;;;;;;1.17;1.17;;;-2.40;53.60;;;;;;5067567;28;20040;-90
2021/01/04 01:24:14;;;;;;;0.17;0.17;;;-2.30;98.70;;;;;;5087954;28;20023;-90
2021/01/04 01:27:16;;;;;;;0.30;0.30;;;-2.40;63.40;;;;;;5088668;28;20036;-89
2021/01/04 01:30:11;;;;;;;0.68;0.57;;;-2.20;99.90;;;;;;5073065;28;20066;-90
2021/01/04 01:33:10;;;;;;;0.68;0.68;;;-2.20;99.90;;;;;;5083397;28;20031;-90
2021/01/04 01:36:04;;;;;;;4.85;0.90;;;-2.30;99.90;;;;;;5090067;28;20552;-90
2021/01/04 01:38:50;;;;;;;1.85;1.75;;;-2.30;99.90;;;;;;5065589;28;20047;-91
2021/01/04 01:41:38;;;;;;;1.90;1.17;;;-2.60;99.90;;;;;;5076490;28;20024;-90
2021/01/04 01:44:14;;;;;;;0.35;0.35;;;-2.60;99.90;;;;;;5080064;28;20024;-89
2021/01/04 01:46:58;;;;;;;0.20;0.20;;;-2.70;99.90;;;;;;5089479;28;20059;-89
2021/01/04 01:49:35;;;;;;;1.38;1.38;;;-2.70;99.90;;;;;;5084575;28;20044;-90
2021/01/04 01:52:33;;;;;;;0.20;0.20;;;-2.70;99.90;;;;;;5088552;28;20039;-89
2021/01/04 01:55:22;;;;;;;1.25;1.23;;;-2.80;99.90;;;;;;5080444;28;20037;-89
2021/01/04 01:58:17;;;;;;;0.20;0.20;;;-2.70;1.00;;;;;;5088067;28;20031;-89
2021/01/04 02:01:13;;;;;;;0.65;0.65;;;-2.80;99.90;;;;;;5076706;28;20024;-90
2021/01/04 02:03:52;;;;;;;0.43;0.43;;;-2.80;99.90;;;;;;5087504;28;20082;-90
2021/01/04 02:06:37;;;;;;;0.30;0.30;;;-2.90;99.90;;;;;;5084989;28;20033;-89
2021/01/04 02:09:14;;;;;;;0.35;0.35;;;-2.70;1.00;;;;;;5074279;28;20052;-89
2021/01/04 02:11:45;;;;;;;;;;;-2.80;1.00;;;;;;5088657;28;20035;-90
2021/01/04 02:14:16;;;;;;;0.40;0.40;;;-2.90;1.00;;;;;;5087422;28;20101;-88
2021/01/04 02:17:13;;;;;;;1.88;1.35;;;-3.10;1.00;;;;;;5088884;28;20020;-90
2021/01/04 02:19:58;;;;;;;0.52;0.52;;;-3.10;1.00;;;;;;5072880;28;20101;-90
2021/01/04 02:22:42;;;;;;;0.77;0.77;;;-2.90;1.00;;;;;;5082418;28;20104;-90
2021/01/04 02:25:08;;;;;;;0.30;0.30;;;-2.90;1.00;;;;;;5078875;28;20059;-90
2021/01/04 02:27:42;;;;;;;0.20;0.20;;;-3.10;1.00;;;;;;5088356;28;20067;-89
2021/01/04 02:30:08;;;;;;;0.20;0.20;;;-3.10;1.00;;;;;;5071514;28;20050;-90
2021/01/04 02:32:34;;;;;;;0.85;0.85;;;-3.20;1.00;;;;;;5078803;28;20167;-90
2021/01/04 02:35:00;;;;;;;0.90;0.90;;;-3.40;1.00;;;;;;5084807;28;20559;-90
2021/01/04 02:37:27;;;;;;;0.40;0.40;;;-3.40;1.00;;;;;;5088916;28;20430;-89
2021/01/04 02:40:14;;;;;;;0.20;0.20;;;-3.40;99.90;;;;;;5081752;28;20020;-90
2021/01/04 02:42:43;;;;;;;1.15;1.15;;;-3.40;99.90;;;;;;5079434;28;20407;-91
2021/01/04 02:45:20;;;;;;;0.20;0.20;;;-3.10;1.00;;;;;;5084308;28;20029;-90
2021/01/04 02:47:54;;;;;;;0.90;0.90;;;-2.90;1.00;;;;;;5084554;28;20028;-90
2021/01/04 02:50:42;;;;;;;0.63;0.63;;;-2.90;1.00;;;;;;5088001;28;20118;-89
2021/01/04 02:53:35;;;;;;;0.57;0.57;;;-3.10;1.00;;;;;;5088642;28;20886;-90
2021/01/04 02:56:35;;;;;;;0.10;0.10;;;-3.30;99.90;;;;;;5082852;28;20097;-89
2021/01/04 02:59:15;;;;;;;1.63;0.52;;;-3.30;99.90;;;;;;5076441;28;20077;-90
2021/01/04 03:01:59;;;;;;;0.82;0.77;;;-3.30;99.90;;;;;;5084409;28;20032;-90
2021/01/04 03:04:27;;;;;;;0.20;0.20;;;-3.30;99.90;;;;;;5086535;28;20090;-89
2021/01/04 03:06:55;;;;;;;0.50;0.50;;;-3.20;99.90;;;;;;5079881;28;20032;-89
2021/01/04 03:09:24;;;;;;;0.32;0.32;;;-3.10;1.00;;;;;;5081812;28;20107;-89
2021/01/04 03:11:50;;;;;;;0.50;0.50;;;-3.10;1.00;;;;;;5068571;28;20028;-89
2021/01/04 03:14:23;;;;;;;0.63;0.63;;;-3.00;1.00;;;;;;5087157;28;20024;-89
2021/01/04 03:17:07;;;;;;;0.38;0.38;;;-3.00;1.00;;;;;;5088602;28;20028;-88
2021/01/04 03:19:38;;;;;;;0.10;0.10;;;-3.00;1.00;;;;;;5077066;28;20028;-89
2021/01/04 03:22:07;;;;;;;0.20;0.20;;;-2.90;1.00;;;;;;5087195;28;20031;-87
2021/01/04 03:24:33;;;;;;;1.15;1.08;;;-2.90;1.00;;;;;;5086130;28;20032;-87
2021/01/04 03:27:09;;;;;;;0.30;0.30;;;-2.80;1.00;;;;;;5086688;28;20024;-87
2021/01/04 03:29:34;;;;;;;0.20;0.20;;;-2.80;1.00;;;;;;5073962;28;20127;-87
2021/01/04 03:32:00;;;;;;;0.20;0.20;;;-2.70;1.00;;;;;;5077717;28;20554;-88
2021/01/04 03:34:26;;;;;;;0.20;0.20;;;-2.70;1.00;;;;;;5073823;28;20020;-89
2021/01/04 03:36:52;;;;;;;2.53;2.30;;;-2.70;1.00;;;;;;5092147;28;20055;-89
2021/01/04 03:39:17;;;;;;;2.08;1.88;;;-2.70;1.00;;;;;;5090518;28;20028;-89
2021/01/04 03:41:43;;;;;;;0.22;0.22;;;-2.70;1.00;;;;;;5090766;28;20410;-90
2021/01/04 03:44:09;;;;;;;3.28;0.70;;;-2.70;1.00;;;;;;5091404;28;20097;-89
2021/01/04 03:46:36;;;;;;;0.80;0.80;;;-2.70;1.00;;;;;;5091365;28;20024;-89
2021/01/04 03:49:02;;;;;;;0.20;0.20;;;-2.60;1.00;;;;;;5083004;28;20078;-90
2021/01/04 03:51:27;;;;;;;1.48;1.38;;;-2.60;1.00;;;;;;5086867;28;20038;-89
2021/01/04 03:53:53;;;;;;;0.22;0.22;;;-2.70;1.00;;;;;;5084438;28;20032;-89
2021/01/04 03:56:22;;;;;;;0.17;0.17;;;-2.80;1.00;;;;;;5072233;28;20577;-89
2021/01/04 03:58:48;;;;;;;1.05;1.05;;;-2.90;1.00;;;;;;5090083;28;20085;-89
2021/01/04 04:01:13;;;;;;;0.20;0.20;;;-3.10;1.00;;;;;;5091866;28;20501;-88
2021/01/04 04:03:39;;;;;;;0.55;0.55;;;-3.30;1.00;;;;;;5082333;28;20438;-88
2021/01/04 04:06:08;;;;;;;0.50;0.50;;;-3.40;99.90;;;;;;5091751;28;20122;-89
2021/01/04 04:08:34;;;;;;;0.30;0.30;;;-3.70;99.90;;;;;;5091343;28;20105;-89
2021/01/04 04:10:59;;;;;;;0.20;0.20;;;-3.70;99.90;;;;;;5085953;28;20029;-90
2021/01/04 04:13:25;;;;;;;1.52;1.42;;;-3.50;99.90;;;;;;5091098;28;20040;-89
2021/01/04 04:15:51;;;;;;;1.05;1.05;;;-3.50;99.90;;;;;;5085408;28;20024;-89
2021/01/04 04:18:17;;;;;;;0.20;0.20;;;-3.50;99.90;;;;;;5077997;28;20020;-89
2021/01/04 04:20:42;;;;;;;0.20;0.20;;;-3.30;99.90;;;;;;5087915;28;20051;-89
2021/01/04 04:23:08;;;;;;;1.10;1.10;;;-3.20;99.90;;;;;;5091449;28;20078;-89
2021/01/04 04:25:34;;;;;;;1.05;1.05;;;-3.30;99.90;;;;;;5081652;28;20036;-88
2021/01/04 04:27:59;;;;;;;1.65;1.55;;;-3.20;99.90;;;;;;5087922;28;20030;-89
2021/01/04 04:30:26;;;;;;;0.82;0.82;;;-3.20;99.90;;;;;;5080977;28;20066;-89
2021/01/04 04:32:54;;;;;;;0.20;0.20;;;-3.20;99.90;;;;;;5079909;28;20040;-88
2021/01/04 04:35:20;;;;;;;2.05;1.95;;;-3.00;1.00;;;;;;5087358;28;20504;-89
2021/01/04 04:37:46;;;;;;;0.45;0.45;;;-3.00;1.00;;;;;;5085129;28;20031;-89
2021/01/04 04:40:30;;;;;;;0.40;0.40;;;-2.80;1.00;;;;;;5076051;28;20032;-89
2021/01/04 04:43:10;;;;;;;3.40;1.45;;;-2.70;1.00;;;;;;5083305;28;20051;-89
2021/01/04 04:45:37;;;;;;;0.20;0.20;;;-2.80;1.00;;;;;;5080190;28;20065;-89
2021/01/04 04:48:10;;;;;;;0.73;0.55;;;-2.70;1.00;;;;;;5089682;28;20032;-89
2021/01/04 04:51:01;;;;;;;0.77;0.77;;;-2.60;1.00;;;;;;5091173;28;20816;-89
2021/01/04 04:53:41;;;;;;;0.22;0.22;;;-2.60;1.00;;;;;;5090030;28;20024;-90
2021/01/04 04:56:19;;;;;;;0.20;0.20;;;-2.60;1.00;;;;;;5088755;28;20039;-90
2021/01/04 04:59:06;;;;;;;0.40;0.40;;;-2.70;1.00;;;;;;5091219;28;20504;-89
2021/01/04 05:01:38;;;;;;;0.10;0.10;;;-3.00;1.00;;;;;;5090962;28;20020;-90
2021/01/04 05:04:31;;;;;;;1.05;0.98;;;-3.10;1.00;;;;;;5091987;28;20924;-88
2021/01/04 05:07:05;;;;;;;0.75;0.75;;;-3.00;1.00;;;;;;5092845;28;20485;-90
2021/01/04 05:09:58;;;;;;;0.35;0.35;;;-2.90;1.00;;;;;;5092964;28;20499;-89
2021/01/04 05:12:41;;;;;;;0.77;0.63;;;-3.00;1.00;;;;;;5085671;28;20059;-90
2021/01/04 05:15:25;;;;;;;0.57;0.57;;;-2.90;1.00;;;;;;5084917;28;20081;-89
2021/01/04 05:18:14;;;;;;;0.20;0.20;;;-2.90;1.00;;;;;;5077814;28;20441;-88
2021/01/04 05:21:24;;;;;;;1.23;1.23;;;-2.90;1.00;;;;;;5078143;28;20085;-88
2021/01/04 05:24:24;;;;;;;0.30;0.30;;;-2.80;1.00;;;;;;4996945;28;20706;-87
2021/01/04 05:27:04;;;;;;;0.10;0.10;;;-2.80;1.00;;;;;;4993009;28;20117;-87
2021/01/04 05:29:51;;;;;;;0.32;0.32;;;-2.80;1.00;;;;;;4995878;28;20118;-87
2021/01/04 05:33:04;;;;;;;0.55;0.55;;;-2.90;1.00;;;;;;5002184;28;20060;-87
2021/01/04 05:35:29;;;;;;;0.20;0.20;;;-2.90;1.00;;;;;;4902810;29;20044;-87
2021/01/04 05:38:09;;;;;;;1.65;0.63;;;-2.80;1.00;;;;;;4907843;29;20044;-86
2021/01/04 05:40:58;;;;;;;0.13;0.13;;;-2.90;1.00;;;;;;4907680;29;20515;-87
2021/01/04 05:43:48;;;;;;;0.10;0.10;;;-2.90;1.00;;;;;;4920145;29;20122;-89
2021/01/04 05:46:57;;;;;;;0.17;0.17;;;-2.90;1.00;;;;;;4929679;29;20066;-87
2021/01/04 05:49:32;;;;;;;1.13;1.13;;;-2.90;1.00;;;;;;4930505;29;20055;-87
2021/01/04 05:51:59;;;;;;;0.20;0.20;;;-3.00;1.00;;;;;;4930632;29;20082;-87
2021/01/04 05:54:30;;;;;;;0.20;0.20;;;-3.00;1.00;;;;;;4918064;29;20181;-87
2021/01/04 05:57:06;;;;;;;0.20;0.20;;;-3.00;1.00;;;;;;4913021;29;20066;-86
2021/01/04 05:59:32;;;;;;;0.20;0.20;;;-3.10;1.00;;;;;;4937860;28;20128;-86
2021/01/04 06:02:07;;;;;;;0.85;0.85;;;-3.10;1.00;;;;;;5025662;28;20104;-87
2021/01/04 06:04:33;;;;;;;0.30;0.30;;;-3.00;1.00;;;;;;5026521;28;20033;-87
2021/01/04 06:07:02;;;;;;;0.50;0.50;;;-3.10;1.00;;;;;;5025182;28;20048;-87
2021/01/04 06:09:29;;;;;;;0.35;0.35;;;-3.00;1.00;;;;;;5028520;28;20029;-89
2021/01/04 06:12:05;;;;;;;2.03;0.93;;;-3.00;1.00;;;;;;5069633;28;20044;-89
2021/01/04 06:14:34;;;;;;;0.70;0.70;;;-2.90;1.00;;;;;;5081151;28;20442;-89
2021/01/04 06:17:05;;;;;;;0.30;0.30;;;-3.00;1.00;;;;;;5087710;28;20036;-88
2021/01/04 06:19:35;;;;;;;0.22;0.22;;;-3.00;1.00;;;;;;5088084;28;20058;-88
2021/01/04 06:22:16;;;;;;;0.40;0.40;;;-2.90;1.00;;;;;;5089717;28;20111;-88
2021/01/04 06:24:44;;;;;;;0.75;0.75;;;-3.00;1.00;;;;;;5083465;28;20342;-87
2021/01/04 06:27:17;;;;;;;0.10;0.10;;;-3.00;1.00;;;;;;5089715;28;20560;-88
2021/01/04 06:29:47;;;;;;;0.95;0.95;;;-3.00;1.00;;;;;;5089384;28;20020;-89
2021/01/04 06:32:30;;;;;;;1.40;1.27;;;-3.00;1.00;;;;;;5085107;28;20032;-88
2021/01/04 06:35:04;;;;;;;1.23;1.05;;;-3.00;1.00;;;;;;5088489;28;20448;-86
2021/01/04 06:37:32;;;;;;;0.20;0.20;;;-2.90;1.00;;;;;;5082082;28;20024;-86
2021/01/04 06:40:01;;;;;;;0.50;0.50;;;-3.00;1.00;;;;;;5089838;28;20005;-88
2021/01/04 06:42:33;;;;;;;0.90;0.90;;;-3.00;1.00;;;;;;5090893;28;20025;-87
2021/01/04 06:45:20;;;;;;;6.93;0.95;;;-3.00;1.00;;;;;;5088737;28;20048;-88
2021/01/04 06:47:55;;;;;;;2.33;1.15;;;-2.90;1.00;;;;;;5089051;28;20023;-87
2021/01/04 06:50:42;;;;;;;0.30;0.30;;;-2.90;1.00;;;;;;5076198;28;20089;-86
2021/01/04 06:53:29;;;;;;;0.88;0.88;;;-3.00;1.00;;;;;;5089175;28;20050;-87
2021/01/04 06:56:28;;;;;;;0.55;0.55;;;-3.00;1.00;;;;;;5080380;28;20028;-87
2021/01/04 06:59:31;;;;;;;0.35;0.35;;;-3.00;1.00;;;;;;5076455;28;20096;-87
2021/01/04 07:02:15;;;;;;;0.50;0.50;;;-3.00;1.00;;;;;;5089270;28;20016;-88
2021/01/04 07:05:03;;;;;;;0.10;0.10;;;-3.00;1.00;;;;;;5089480;28;20031;-87
2021/01/04 07:07:55;;;;;;;0.20;0.20;;;-3.00;1.00;;;;;;5091046;28;20020;-87
2021/01/04 07:10:24;;;;;;;0.45;0.45;;;-3.00;1.00;;;;;;5088106;28;20081;-88
2021/01/04 07:13:17;;;;;;;1.38;1.27;;;-2.90;1.00;;;;;;5089175;28;20028;-87
2021/01/04 07:16:00;;;;;;;0.55;0.55;;;-2.90;1.00;;;;;;5089984;28;20035;-88
2021/01/04 07:18:56;;;;;;;0.10;0.10;;;-3.00;1.00;;;;;;5087463;28;20074;-87
2021/01/04 07:21:34;;;;;;;0.30;0.30;;;-3.00;1.00;;;;;;5078117;28;20051;-88
2021/01/04 07:24:46;;;;;;;0.20;0.20;;;-3.00;1.00;;;;;;5086974;28;20044;-88
2021/01/04 07:27:30;;;;;;;0.80;0.80;;;-3.00;1.00;;;;;;5039602;28;20033;-89
2021/01/04 07:29:56;;;;;;;0.40;0.40;;;-3.00;1.00;;;;;;5086538;28;20013;-88
2021/01/04 07:32:37;;;;;;;2.17;1.08;;;-3.00;1.00;;;;;;5073482;28;20146;-87
2021/01/04 07:35:42;;;;;;;0.10;0.10;;;-3.00;1.00;;;;;;5085443;28;20513;-87
2021/01/04 07:38:07;;;;;;;0.65;0.65;;;-3.00;1.00;;;;;;5074972;28;20391;-89
2021/01/04 07:40:42;;;;;;;0.30;0.30;;;-3.00;1.00;;;;;;5087014;28;20104;-86
2021/01/04 07:43:22;;;;;;;1.00;1.00;;;-3.00;1.00;;;;;;5087755;28;20021;-86
2021/01/04 07:46:01;;;;;;;0.10;0.10;;;-3.00;1.00;;;;;;5077704;28;20515;-87
2021/01/04 07:48:52;;;;;;;0.35;0.35;;;-3.00;1.00;;;;;;5079046;28;20019;-86
2021/01/04 07:51:32;;;;;;;1.08;1.08;;;-3.00;1.00;;;;;;5075422;28;20074;-86
2021/01/04 07:54:07;;;;;;;1.20;0.57;;;-3.00;1.00;;;;;;5084271;28;20024;-86
2021/01/04 07:56:51;;;;;;;4.97;3.45;;;-3.00;1.00;;;;;;5072549;28;20377;-86
2021/01/04 07:59:44;;;;;;;0.10;0.10;;;-3.00;1.00;;;;;;5071007;28;20021;-86
2021/01/04 08:03:00;;;;;;;0.38;0.38;;;-2.90;1.00;;;;;;5087963;28;20022;-89
2021/01/04 08:05:41;;;;;;;0.30;0.30;;;-2.90;1.00;;;;;;5086059;28;20043;-88
2021/01/04 08:08:31;;;;;;;1.27;1.10;;;-2.80;1.00;;;;;;5069391;28;20036;-88
2021/01/04 08:11:10;;;;;;;0.50;0.50;;;-2.80;1.00;;;;;;5069619;28;20047;-89
2021/01/04 08:13:41;;;;;;;0.20;0.20;;;-2.90;99.90;;;;;;5080092;28;20028;-88
2021/01/04 08:16:21;;;;;;;0.50;0.50;;;-2.70;99.90;;;;;;5077354;28;20077;-90
2021/01/04 08:18:52;;;;;;;2.13;1.00;;;-2.30;99.90;;;;;;5072817;28;20028;-88
2021/01/04 08:21:46;;;;;;;0.93;0.93;;;-1.90;99.90;;;;;;5079504;28;20023;-88
2021/01/04 08:24:37;;;;;;;2.55;1.80;;;-1.80;99.90;;;;;;5094045;28;20050;-88
2021/01/04 08:27:11;;;;;;;0.20;0.20;;;-1.20;99.90;;;;;;5093859;28;20128;-89
2021/01/04 08:29:54;;;;;;;3.10;1.02;;;-0.90;99.90;;;;;;5076466;28;20085;-89
2021/01/04 08:32:34;;;;;;;2.35;1.45;;;-1.50;99.90;;;;;;5093998;28;20020;-89
2021/01/04 08:35:16;;;;;;;0.43;0.43;;;-1.60;99.90;;;;;;5092869;28;20081;-88
2021/01/04 08:37:45;;;;;;;0.20;0.20;;;-1.40;99.90;;;;;;5093202;28;20022;-89
2021/01/04 08:40:18;;;;;;;2.17;2.03;;;-0.40;99.90;;;;;;5093803;28;20020;-89
2021/01/04 08:42:44;;;;;;;0.52;0.52;;;0.20;99.90;;;;;;5093284;28;20051;-89
2021/01/04 08:45:15;;;;;;;0.47;0.47;;;0.20;99.90;;;;;;5093200;28;20028;-89
2021/01/04 08:47:52;;;;;;;0.43;0.43;;;0.50;99.90;;;;;;5093607;28;20506;-89
2021/01/04 08:50:39;;;;;;;1.30;1.27;;;1.00;99.90;;;;;;5079243;28;20123;-89
2021/01/04 08:53:15;;;;;;;1.10;1.10;;;3.20;99.90;;;;;;5093087;28;20024;-88
2021/01/04 08:55:41;;;;;;;0.22;0.22;;;3.70;99.90;;;;;;5093514;28;20024;-89
2021/01/04 08:58:38;;;;;;;0.43;0.43;;;4.30;99.90;;;;;;5091543;28;20035;-90
2021/01/04 09:01:12;;;;;;;2.45;1.20;;;4.00;99.90;;;;;;5083542;28;20020;-89
2021/01/04 09:03:39;;;;;;;0.30;0.30;;;4.50;99.90;;;;;;5091346;28;20024;-88
2021/01/04 09:06:23;;;;;;;0.50;0.50;;;3.60;99.90;;;;;;5092134;28;20564;-88
2021/01/04 09:08:57;;;;;;;0.38;0.38;;;3.70;99.90;;;;;;5091658;28;20443;-88
2021/01/04 09:11:23;;;;;;;0.32;0.32;;;4.20;99.90;;;;;;5080445;28;20362;-88
2021/01/04 09:13:50;;;;;;;0.95;0.50;;;4.60;99.90;;;;;;5090595;28;20039;-87
2021/01/04 09:16:29;;;;;;;0.85;0.85;;;4.80;99.90;;;;;;5101568;28;20043;-87
2021/01/04 09:19:19;;;;;;;1.48;1.38;;;5.20;99.90;;;;;;5090443;28;20024;-87
2021/01/04 09:21:45;;;;;;;0.20;0.20;;;5.30;99.90;;;;;;5086837;28;20105;-86
2021/01/04 09:24:20;;;;;;;0.20;0.20;;;4.80;99.90;;;;;;5090472;28;20092;-86
2021/01/04 09:26:47;;;;;;;0.35;0.35;;;5.60;99.90;;;;;;5090314;28;20028;-86
2021/01/04 09:29:17;;;;;;;0.57;0.43;;;5.80;99.90;;;;;;5089379;28;20119;-87
2021/01/04 09:31:49;;;;;;;1.00;0.52;;;5.60;99.90;;;;;;5075931;28;20028;-87
2021/01/04 09:34:17;;;;;;;0.15;0.15;;;5.50;99.90;;;;;;5083530;28;20444;-87
2021/01/04 09:36:43;;;;;;;0.57;0.57;;;5.00;99.90;;;;;;5089784;28;20491;-87
2021/01/04 09:39:12;;;;;;;12.13;2.67;;;5.00;99.90;;;;;;5090110;28;20028;-87
2021/01/04 09:41:40;;;;;;;0.70;0.70;;;5.60;99.90;;;;;;5089642;28;20554;-87
2021/01/04 09:44:08;;;;;;;1.85;1.45;;;5.90;99.90;;;;;;5089589;28;20097;-86
2021/01/04 09:46:55;;;;;;;0.68;0.68;;;5.60;99.90;;;;;;5088459;28;20088;-86
2021/01/04 09:49:40;;;;;;;0.20;0.20;;;5.80;99.90;;;;;;5089380;28;20040;-87
2021/01/04 09:52:20;;;;;;;0.63;0.63;;;5.90;99.90;;;;;;5089538;28;20028;-86
2021/01/04 09:54:51;;;;;;;0.40;0.40;;;6.10;99.90;;;;;;5088990;28;20086;-86
2021/01/04 09:57:19;;;;;;;5.38;1.20;;;6.00;99.90;;;;;;5089292;28;20411;-87
2021/01/04 09:59:45;;;;;;;0.20;0.20;;;5.60;99.90;;;;;;5089260;28;20541;-86
2021/01/04 10:02:26;;;;;;;6.43;2.47;;;5.90;99.90;;;;;;5089273;28;20016;-86
2021/01/04 10:04:53;;;;;;;0.60;0.60;;;6.20;99.90;;;;;;5088858;28;20062;-86
2021/01/04 10:07:26;;;;;;;0.50;0.50;;;6.60;99.90;;;;;;5087857;28;20815;-85
2021/01/04 10:09:53;;;;;;;0.68;0.68;;;6.70;99.90;;;;;;5088516;28;20567;-85
2021/01/04 10:12:20;;;;;;;;;;;6.80;99.90;;;;;;5089552;28;20020;-86
2021/01/04 10:14:46;;;;;;;0.45;0.45;;;7.20;99.90;;;;;;5088805;28;20415;-86
2021/01/04 10:17:13;;;;;;;0.73;0.70;;;7.30;99.90;;;;;;5087569;28;20131;-86
2021/01/04 10:19:49;;;;;;;0.20;0.20;;;8.00;99.90;;;;;;5087549;28;20039;-85
2021/01/04 10:22:20;;;;;;;0.45;0.45;;;7.50;99.90;;;;;;5088862;28;20506;-86
2021/01/04 10:24:46;;;;;;;0.40;0.40;;;7.90;99.90;;;;;;5089040;28;20028;-86
2021/01/04 10:27:16;;;;;;;1.13;1.05;;;8.30;99.90;;;;;;5087265;28;20076;-86
2021/01/04 10:29:52;;;;;;;2.30;0.88;;;9.00;99.90;;;;;;5089097;28;20561;-86
2021/01/04 10:32:24;;;;;;;0.15;0.15;;;8.70;99.90;;;;;;5082677;28;20028;-86
2021/01/04 10:34:51;;;;;;;3.53;1.27;;;7.30;99.90;;;;;;5088910;28;20020;-86
2021/01/04 10:37:23;;;;;;;;;;;7.20;99.90;;;;;;5089458;28;20020;-86
2021/01/04 10:39:48;;;;;;;0.25;0.25;;;7.70;99.90;;;;;;5088909;28;20657;-86
2021/01/04 10:42:22;;;;;;;0.20;0.20;;;7.90;99.90;;;;;;5088877;28;20058;-86
2021/01/04 10:44:50;;;;;;;0.52;0.52;;;7.40;99.90;;;;;;5087799;28;20035;-86
2021/01/04 10:47:27;;;;;;;0.20;0.20;;;7.10;99.90;;;;;;5087997;28;20308;-86
2021/01/04 10:50:08;;;;;;;0.13;0.13;;;8.10;99.90;;;;;;5088809;28;20057;-85
2021/01/04 10:52:34;;;;;;;0.20;0.20;;;7.40;99.90;;;;;;5078495;28;20029;-85
2021/01/04 10:55:00;;;;;;;0.63;0.63;;;7.50;99.90;;;;;;5083943;28;20028;-85
2021/01/04 10:57:33;;;;;;;0.45;0.45;;;7.40;99.90;;;;;;5088495;28;20016;-85
2021/01/04 11:00:08;;;;;;;2.10;2.00;;;7.50;99.90;;;;;;5088356;28;20061;-86
2021/01/04 11:02:49;;;;;;;0.40;0.40;;;8.20;99.90;;;;;;5088717;28;20543;-86
2021/01/04 11:05:19;;;;;;;0.90;0.90;;;9.00;99.90;;;;;;5074137;28;20028;-85
2021/01/04 11:07:45;;;;;;;0.60;0.60;;;9.10;99.90;;;;;;5088781;28;20256;-86
2021/01/04 11:10:22;;;;;;;0.40;0.40;;;9.00;99.90;;;;;;5088277;28;20028;-86
2021/01/04 11:12:54;;;;;;;2.15;0.75;;;8.70;99.90;;;;;;5088635;28;20085;-86
2021/01/04 11:15:29;;;;;;;2.20;0.57;;;10.10;99.90;;;;;;5086794;28;20115;-86
2021/01/04 11:18:17;;;;;;;0.40;0.40;;;9.70;99.90;;;;;;5088645;28;20041;-86
2021/01/04 11:20:43;;;;;;;1.88;1.45;;;8.90;99.90;;;;;;5074105;28;20028;-86
2021/01/04 11:23:15;;;;;;;6.18;2.15;;;9.20;99.90;;;;;;5088170;28;20507;-86
2021/01/04 11:25:44;;;;;;;0.98;0.98;;;8.80;99.90;;;;;;5088413;28;20024;-86
2021/01/04 11:28:10;;;;;;;0.47;0.47;;;10.10;99.90;;;;;;5086749;28;20507;-85
2021/01/04 11:30:36;;;;;;;0.10;0.10;;;8.40;99.90;;;;;;5083506;28;20117;-85
2021/01/04 11:33:03;;;;;;;0.50;0.50;;;7.60;99.90;;;;;;5085762;28;20024;-86
2021/01/04 11:35:30;;;;;;;0.52;0.52;;;8.60;99.90;;;;;;5088189;28;20564;-85
2021/01/04 11:37:57;;;;;;;0.20;0.20;;;7.90;99.90;;;;;;5087008;28;20032;-86
2021/01/04 11:40:24;;;;;;;0.30;0.30;;;7.80;99.90;;;;;;5088268;28;20624;-86
2021/01/04 11:42:50;;;;;;;0.20;0.20;;;7.50;99.90;;;;;;5072792;28;20035;-86
2021/01/04 11:45:20;;;;;;;0.35;0.35;;;7.40;99.90;;;;;;5074112;28;20107;-86
2021/01/04 11:47:46;;;;;;;0.10;0.10;;;7.90;99.90;;;;;;5088337;28;20126;-86
2021/01/04 11:50:13;;;;;;;0.50;0.50;;;9.70;99.90;;;;;;5087933;28;20467;-86
2021/01/04 11:52:39;;;;;;;0.93;0.32;;;8.90;99.90;;;;;;5088350;28;20577;-86
2021/01/04 11:55:08;;;;;;;0.63;0.63;;;9.40;99.90;;;;;;5089848;28;20028;-85
2021/01/04 11:57:34;;;;;;;0.90;0.82;;;8.80;99.90;;;;;;5090660;28;20400;-86
2021/01/04 12:00:00;;;;;;;0.20;0.20;;;6.80;99.90;;;;;;5090547;28;20028;-86
2021/01/04 12:02:25;;;;;;;0.40;0.40;;;3.90;99.90;;;;;;5090308;28;20024;-86
2021/01/04 12:04:51;;;;;;;0.28;0.28;;;2.50;99.90;;;;;;5092318;28;20099;-87
2021/01/04 12:07:18;;;;;;;1.35;1.25;;;2.10;99.90;;;;;;5086540;28;20058;-86
2021/01/04 12:09:44;;;;;;;1.30;0.80;;;2.10;99.90;;;;;;5083002;28;20063;-86
2021/01/04 12:12:10;;;;;;;0.40;0.40;;;2.30;99.90;;;;;;5091756;28;20058;-86
2021/01/04 12:14:36;;;;;;;0.67;0.63;;;2.10;99.90;;;;;;5091548;28;20043;-86
2021/01/04 12:17:05;;;;;;;0.22;0.22;;;2.60;99.90;;;;;;5088895;28;20051;-86
2021/01/04 12:19:31;;;;;;;3.58;0.95;;;2.40;99.90;;;;;;5079086;28;20061;-86
2021/01/04 12:22:05;;;;;;;0.30;0.30;;;2.30;99.90;;;;;;5091689;28;20027;-87
2021/01/04 12:24:34;;;;;;;0.40;0.40;;;2.30;99.90;;;;;;5078346;28;20688;-87
2021/01/04 12:27:05;;;;;;;0.68;0.68;;;2.30;99.90;;;;;;5091560;28;20028;-85
2021/01/04 12:29:31;;;;;;;0.75;0.75;;;2.30;99.90;;;;;;5087246;28;20505;-86
2021/01/04 12:31:57;;;;;;;0.25;0.25;;;2.70;99.90;;;;;;5085107;28;20556;-86
2021/01/04 12:34:22;;;;;;;0.20;0.20;;;2.60;99.90;;;;;;5090995;28;20040;-86
2021/01/04 12:36:48;;;;;;;0.20;0.20;;;2.50;99.90;;;;;;5090719;28;20402;-86
2021/01/04 12:39:14;;;;;;;1.35;1.25;;;2.40;99.90;;;;;;5089666;28;20478;-86
2021/01/04 12:41:41;;;;;;;0.35;0.35;;;2.30;99.90;;;;;;5090686;28;20031;-86
2021/01/04 12:44:09;;;;;;;0.30;0.30;;;2.60;99.90;;;;;;5091200;28;20024;-86
2021/01/04 12:46:41;;;;;;;0.75;0.75;;;2.70;99.90;;;;;;5090518;28;20450;-86
2021/01/04 12:49:07;;;;;;;0.13;0.13;;;2.90;99.90;;;;;;5090649;28;20154;-87
2021/01/04 12:51:32;;;;;;;0.63;0.63;;;3.10;99.90;;;;;;5090807;28;20542;-87
2021/01/04 12:53:58;;;;;;;0.68;0.68;;;3.20;99.90;;;;;;5089348;28;20502;-86
2021/01/04 12:56:24;;;;;;;0.10;0.10;;;3.20;99.90;;;;;;5091007;28;20028;-87
2021/01/04 12:58:49;;;;;;;0.20;0.20;;;3.50;99.90;;;;;;5089141;28;20793;-86
2021/01/04 13:01:17;;;;;;;0.93;0.40;;;3.60;99.90;;;;;;5089362;28;20035;-86
2021/01/04 13:03:44;;;;;;;4.13;1.25;;;3.70;99.90;;;;;;5089958;28;20430;-86
2021/01/04 13:06:18;;;;;;;0.22;0.22;;;3.80;99.90;;;;;;5088586;28;20182;-87
2021/01/04 13:08:43;;;;;;;0.20;0.20;;;3.60;99.90;;;;;;5090135;28;20035;-86
2021/01/04 13:11:09;;;;;;;0.43;0.43;;;3.60;99.90;;;;;;5080829;28;20129;-86
2021/01/04 13:13:35;;;;;;;5.18;1.65;;;3.80;99.90;;;;;;5085056;28;20109;-86
2021/01/04 13:16:00;;;;;;;0.43;0.43;;;3.80;99.90;;;;;;5089058;28;20111;-86
2021/01/04 13:18:26;;;;;;;0.20;0.20;;;3.80;99.90;;;;;;5088620;28;20020;-86
2021/01/04 13:20:52;;;;;;;0.15;0.15;;;3.90;99.90;;;;;;5084901;28;20031;-86
2021/01/04 13:23:18;;;;;;;1.75;1.10;;;3.80;99.90;;;;;;5079471;28;20076;-86
2021/01/04 13:25:43;;;;;;;0.20;0.20;;;3.90;99.90;;;;;;5089372;28;20016;-86
2021/01/04 13:28:09;;;;;;;1.80;1.13;;;3.70;99.90;;;;;;5089613;28;20032;-86
2021/01/04 13:30:36;;;;;;;0.30;0.30;;;3.80;99.90;;;;;;5086132;28;20508;-86
2021/01/04 13:33:02;;;;;;;;;;;3.90;99.90;;;;;;5087428;28;20574;-86
2021/01/04 13:35:28;;;;;;;0.50;0.50;;;3.90;99.90;;;;;;5089588;28;19919;-86
2021/01/04 13:37:54;;;;;;;0.32;0.28;;;3.80;99.90;;;;;;5089174;28;20028;-86